sensor_id;sensor_type;location;lat;lon;timestamp;temperature;humidity
71208;DHT22;58938;49.868;8.646;2022-12-18T00:01:02;-3275.60;52.20
71208;DHT22;58938;49.868;8.646;2022-12-18T00:03:33;-3275.60;52.20
71208;DHT22;58938;49.868;8.646;2022-12-18T00:05:58;-3275.60;52.20
71208;DHT22;58938;49.868;8.646;2022-12-18T00:08:25;-3275.60;52.20
71208;DHT22;58938;49.868;8.646;2022-12-18T00:10:51;-3275.60;52.20
71208;DHT22;58938;49.868;8.646;2022-12-18T00:13:16;-3275.60;52.20
71208;DHT22;58938;49.868;8.646;2022-12-18T00:15:42;-3275.60;52.20
71208;DHT22;58938;49.868;8.646;2022-12-18T00:18:08;-3275.60;52.20
71208;DHT22;58938;49.868;8.646;2022-12-18T00:20:37;-3275.60;52.20
71208;DHT22;58938;49.868;8.646;2022-12-18T00:23:03;-3275.60;52.20
71208;DHT22;58938;49.868;8.646;2022-12-18T00:25:29;-3275.60;52.20
71208;DHT22;58938;49.868;8.646;2022-12-18T00:27:57;-3275.60;52.20
71208;DHT22;58938;49.868;8.646;2022-12-18T00:30:23;-3275.60;52.20
71208;DHT22;58938;49.868;8.646;2022-12-18T00:32:48;-3275.60;52.20
71208;DHT22;58938;49.868;8.646;2022-12-18T00:35:14;-3275.60;52.20
71208;DHT22;58938;49.868;8.646;2022-12-18T00:37:39;-3275.60;52.20
71208;DHT22;58938;49.868;8.646;2022-12-18T00:40:05;-3275.60;52.20
71208;DHT22;58938;49.868;8.646;2022-12-18T00:42:31;-3275.60;52.20
71208;DHT22;58938;49.868;8.646;2022-12-18T00:45:16;-3275.60;52.20
71208;DHT22;58938;49.868;8.646;2022-12-18T00:47:41;-3275.60;52.20
71208;DHT22;58938;49.868;8.646;2022-12-18T00:50:08;-3275.60;52.20
71208;DHT22;58938;49.868;8.646;2022-12-18T00:52:33;-3275.60;52.20
71208;DHT22;58938;49.868;8.646;2022-12-18T00:54:59;-3275.60;52.20
71208;DHT22;58938;49.868;8.646;2022-12-18T00:57:24;-3275.60;52.20
71208;DHT22;58938;49.868;8.646;2022-12-18T00:59:50;-3275.60;52.20
71208;DHT22;58938;49.868;8.646;2022-12-18T01:02:16;-3275.60;52.20
71208;DHT22;58938;49.868;8.646;2022-12-18T01:04:41;-3275.60;52.20
71208;DHT22;58938;49.868;8.646;2022-12-18T01:07:07;-3275.60;52.20
71208;DHT22;58938;49.868;8.646;2022-12-18T01:09:33;-3275.60;52.20
71208;DHT22;58938;49.868;8.646;2022-12-18T01:11:58;-3275.60;52.20
71208;DHT22;58938;49.868;8.646;2022-12-18T01:14:24;-3275.60;52.20
71208;DHT22;58938;49.868;8.646;2022-12-18T01:16:49;-3275.60;52.20
71208;DHT22;58938;49.868;8.646;2022-12-18T01:19:15;-3275.60;52.20
71208;DHT22;58938;49.868;8.646;2022-12-18T01:21:40;-3275.60;52.20
71208;DHT22;58938;49.868;8.646;2022-12-18T01:24:06;-3275.60;52.20
71208;DHT22;58938;49.868;8.646;2022-12-18T01:26:32;-3275.60;52.20
71208;DHT22;58938;49.868;8.646;2022-12-18T01:28:58;-3275.60;52.20
71208;DHT22;58938;49.868;8.646;2022-12-18T01:31:26;-3275.60;52.20
71208;DHT22;58938;49.868;8.646;2022-12-18T01:33:52;-3275.60;52.20
71208;DHT22;58938;49.868;8.646;2022-12-18T01:36:32;-3275.60;52.20
71208;DHT22;58938;49.868;8.646;2022-12-18T01:39:04;-3275.60;52.20
71208;DHT22;58938;49.868;8.646;2022-12-18T01:41:31;-3275.60;52.20
71208;DHT22;58938;49.868;8.646;2022-12-18T01:44:56;-3275.60;52.20
71208;DHT22;58938;49.868;8.646;2022-12-18T01:47:33;-3275.60;52.20
71208;DHT22;58938;49.868;8.646;2022-12-18T01:50:04;-3275.60;52.20
71208;DHT22;58938;49.868;8.646;2022-12-18T01:52:31;-3275.60;52.20
71208;DHT22;58938;49.868;8.646;2022-12-18T01:54:58;-3275.60;52.20
71208;DHT22;58938;49.868;8.646;2022-12-18T01:57:25;-3275.60;52.20
71208;DHT22;58938;49.868;8.646;2022-12-18T01:59:53;-3275.60;52.20
71208;DHT22;58938;49.868;8.646;2022-12-18T02:02:21;-3275.60;52.20
71208;DHT22;58938;49.868;8.646;2022-12-18T02:04:47;-3275.60;52.20
71208;DHT22;58938;49.868;8.646;2022-12-18T02:12:49;-3275.60;52.20
71208;DHT22;58938;49.868;8.646;2022-12-18T02:15:32;-3275.60;52.20
71208;DHT22;58938;49.868;8.646;2022-12-18T02:18:07;-3275.60;52.20
71208;DHT22;58938;49.868;8.646;2022-12-18T02:20:49;-3275.60;52.20
71208;DHT22;58938;49.868;8.646;2022-12-18T02:28:41;-3275.60;52.20
71208;DHT22;58938;49.868;8.646;2022-12-18T02:31:11;-3275.60;52.20
71208;DHT22;58938;49.868;8.646;2022-12-18T02:33:37;-3275.60;52.20
71208;DHT22;58938;49.868;8.646;2022-12-18T02:36:05;-3275.60;52.20
71208;DHT22;58938;49.868;8.646;2022-12-18T02:38:32;-3275.60;52.20
71208;DHT22;58938;49.868;8.646;2022-12-18T02:40:59;-3275.60;52.20
71208;DHT22;58938;49.868;8.646;2022-12-18T02:43:25;-3275.60;52.20
71208;DHT22;58938;49.868;8.646;2022-12-18T02:45:57;-3275.60;52.20
71208;DHT22;58938;49.868;8.646;2022-12-18T02:48:28;-3275.60;52.20
71208;DHT22;58938;49.868;8.646;2022-12-18T02:51:03;-3275.60;52.20
71208;DHT22;58938;49.868;8.646;2022-12-18T02:53:45;-3275.60;52.20
71208;DHT22;58938;49.868;8.646;2022-12-18T02:56:17;-3275.60;52.20
71208;DHT22;58938;49.868;8.646;2022-12-18T02:58:56;-3275.60;52.20
71208;DHT22;58938;49.868;8.646;2022-12-18T03:01:33;-3275.60;52.20
71208;DHT22;58938;49.868;8.646;2022-12-18T03:04:12;-3275.60;52.20
71208;DHT22;58938;49.868;8.646;2022-12-18T03:06:43;-3275.60;52.20
71208;DHT22;58938;49.868;8.646;2022-12-18T03:09:15;-3275.60;52.20
71208;DHT22;58938;49.868;8.646;2022-12-18T03:11:47;-3275.60;52.20
71208;DHT22;58938;49.868;8.646;2022-12-18T03:14:34;-3275.60;52.20
71208;DHT22;58938;49.868;8.646;2022-12-18T03:17:05;-3275.60;52.20
71208;DHT22;58938;49.868;8.646;2022-12-18T03:19:33;-3275.60;52.20
71208;DHT22;58938;49.868;8.646;2022-12-18T03:22:02;-3275.60;52.20
71208;DHT22;58938;49.868;8.646;2022-12-18T03:24:31;-3275.60;52.20
71208;DHT22;58938;49.868;8.646;2022-12-18T03:27:01;-3275.60;52.20
71208;DHT22;58938;49.868;8.646;2022-12-18T03:29:42;-3275.60;52.20
71208;DHT22;58938;49.868;8.646;2022-12-18T03:34:57;-3275.60;52.20
71208;DHT22;58938;49.868;8.646;2022-12-18T03:37:24;-3275.60;52.20
71208;DHT22;58938;49.868;8.646;2022-12-18T03:39:49;-3275.60;52.20
71208;DHT22;58938;49.868;8.646;2022-12-18T03:45:02;-3275.60;52.20
71208;DHT22;58938;49.868;8.646;2022-12-18T03:55:48;-3275.60;52.20
71208;DHT22;58938;49.868;8.646;2022-12-18T03:58:18;-3275.60;52.20
71208;DHT22;58938;49.868;8.646;2022-12-18T04:00:44;-3275.60;52.20
71208;DHT22;58938;49.868;8.646;2022-12-18T04:03:12;-3275.60;52.20
71208;DHT22;58938;49.868;8.646;2022-12-18T04:05:39;-3275.60;52.20
71208;DHT22;58938;49.868;8.646;2022-12-18T04:08:06;-3275.60;52.20
71208;DHT22;58938;49.868;8.646;2022-12-18T04:10:32;-3275.60;52.20
71208;DHT22;58938;49.868;8.646;2022-12-18T04:12:58;-3275.60;52.20
71208;DHT22;58938;49.868;8.646;2022-12-18T04:15:23;-3275.60;52.20
71208;DHT22;58938;49.868;8.646;2022-12-18T04:17:50;-3275.60;52.20
71208;DHT22;58938;49.868;8.646;2022-12-18T04:20:16;-3275.60;52.20
71208;DHT22;58938;49.868;8.646;2022-12-18T04:22:42;-3275.60;52.20
71208;DHT22;58938;49.868;8.646;2022-12-18T04:25:08;-3275.60;52.20
71208;DHT22;58938;49.868;8.646;2022-12-18T04:27:34;-3275.60;52.20
71208;DHT22;58938;49.868;8.646;2022-12-18T04:29:59;-3275.60;52.20
71208;DHT22;58938;49.868;8.646;2022-12-18T04:32:25;-3275.60;52.20
71208;DHT22;58938;49.868;8.646;2022-12-18T04:34:51;-3275.60;52.20
71208;DHT22;58938;49.868;8.646;2022-12-18T04:37:16;-3275.60;52.20
71208;DHT22;58938;49.868;8.646;2022-12-18T04:39:42;-3275.60;52.20
71208;DHT22;58938;49.868;8.646;2022-12-18T04:42:07;-3275.60;52.20
71208;DHT22;58938;49.868;8.646;2022-12-18T04:44:33;-3275.60;52.20
71208;DHT22;58938;49.868;8.646;2022-12-18T04:46:58;-3275.60;52.20
71208;DHT22;58938;49.868;8.646;2022-12-18T04:49:24;-3275.60;52.20
71208;DHT22;58938;49.868;8.646;2022-12-18T04:51:50;-3275.60;52.20
71208;DHT22;58938;49.868;8.646;2022-12-18T04:54:15;-3275.60;52.20
71208;DHT22;58938;49.868;8.646;2022-12-18T04:56:41;-3275.60;52.20
71208;DHT22;58938;49.868;8.646;2022-12-18T04:59:06;-3275.60;52.20
71208;DHT22;58938;49.868;8.646;2022-12-18T05:01:33;-3275.60;52.20
71208;DHT22;58938;49.868;8.646;2022-12-18T05:03:59;-3275.60;52.20
71208;DHT22;58938;49.868;8.646;2022-12-18T05:06:24;-3275.60;52.20
71208;DHT22;58938;49.868;8.646;2022-12-18T05:08:50;-3275.60;52.20
71208;DHT22;58938;49.868;8.646;2022-12-18T05:11:16;-3275.60;52.20
71208;DHT22;58938;49.868;8.646;2022-12-18T05:13:43;-3275.60;52.20
71208;DHT22;58938;49.868;8.646;2022-12-18T05:16:10;-3275.60;52.20
71208;DHT22;58938;49.868;8.646;2022-12-18T05:18:36;-3275.60;52.20
71208;DHT22;58938;49.868;8.646;2022-12-18T05:21:01;-3275.60;52.20
71208;DHT22;58938;49.868;8.646;2022-12-18T05:23:27;-3275.60;52.20
71208;DHT22;58938;49.868;8.646;2022-12-18T05:28:22;-3275.60;52.20
71208;DHT22;58938;49.868;8.646;2022-12-18T05:30:49;-3275.60;52.20
71208;DHT22;58938;49.868;8.646;2022-12-18T05:33:16;-3275.60;52.20
71208;DHT22;58938;49.868;8.646;2022-12-18T05:35:41;-3275.60;52.20
71208;DHT22;58938;49.868;8.646;2022-12-18T05:38:07;-3275.60;52.20
71208;DHT22;58938;49.868;8.646;2022-12-18T05:40:32;-3275.60;52.20
71208;DHT22;58938;49.868;8.646;2022-12-18T05:42:58;-3275.60;52.20
71208;DHT22;58938;49.868;8.646;2022-12-18T05:45:23;-3275.60;52.20
71208;DHT22;58938;49.868;8.646;2022-12-18T05:47:49;-3275.60;52.20
71208;DHT22;58938;49.868;8.646;2022-12-18T05:50:14;-3275.60;52.20
71208;DHT22;58938;49.868;8.646;2022-12-18T05:52:40;-3275.60;52.20
71208;DHT22;58938;49.868;8.646;2022-12-18T05:55:06;-3275.60;52.20
71208;DHT22;58938;49.868;8.646;2022-12-18T05:57:32;-3275.60;52.20
71208;DHT22;58938;49.868;8.646;2022-12-18T05:59:57;-3275.60;52.20
71208;DHT22;58938;49.868;8.646;2022-12-18T06:02:23;-3275.60;52.20
71208;DHT22;58938;49.868;8.646;2022-12-18T06:04:49;-3275.60;52.20
71208;DHT22;58938;49.868;8.646;2022-12-18T06:07:14;-3275.60;52.20
71208;DHT22;58938;49.868;8.646;2022-12-18T06:09:40;-3275.60;52.20
71208;DHT22;58938;49.868;8.646;2022-12-18T06:12:05;-3275.60;52.20
71208;DHT22;58938;49.868;8.646;2022-12-18T06:14:31;-3275.60;52.20
71208;DHT22;58938;49.868;8.646;2022-12-18T06:16:57;-3275.60;52.20
71208;DHT22;58938;49.868;8.646;2022-12-18T06:19:22;-3275.60;52.20
71208;DHT22;58938;49.868;8.646;2022-12-18T06:21:48;-3275.60;52.20
71208;DHT22;58938;49.868;8.646;2022-12-18T06:24:14;-3275.60;52.20
71208;DHT22;58938;49.868;8.646;2022-12-18T06:26:40;-3275.60;52.20
71208;DHT22;58938;49.868;8.646;2022-12-18T06:29:06;-3275.60;52.20
71208;DHT22;58938;49.868;8.646;2022-12-18T06:31:31;-3275.60;52.20
71208;DHT22;58938;49.868;8.646;2022-12-18T06:33:57;-3275.60;52.20
71208;DHT22;58938;49.868;8.646;2022-12-18T06:36:22;-3275.60;52.20
71208;DHT22;58938;49.868;8.646;2022-12-18T06:38:48;-3275.60;52.20
71208;DHT22;58938;49.868;8.646;2022-12-18T06:41:17;-3275.60;52.20
71208;DHT22;58938;49.868;8.646;2022-12-18T06:43:43;-3275.60;52.20
71208;DHT22;58938;49.868;8.646;2022-12-18T06:46:09;-3275.60;52.20
71208;DHT22;58938;49.868;8.646;2022-12-18T06:48:35;-3275.60;52.20
71208;DHT22;58938;49.868;8.646;2022-12-18T06:51:01;-3275.60;52.20
71208;DHT22;58938;49.868;8.646;2022-12-18T06:53:27;-3275.60;52.20
71208;DHT22;58938;49.868;8.646;2022-12-18T06:55:59;-3275.60;52.20
71208;DHT22;58938;49.868;8.646;2022-12-18T06:58:24;-3275.60;52.20
71208;DHT22;58938;49.868;8.646;2022-12-18T07:00:50;-3275.60;52.20
71208;DHT22;58938;49.868;8.646;2022-12-18T07:03:16;-3275.60;52.20
71208;DHT22;58938;49.868;8.646;2022-12-18T07:05:41;-3275.60;52.20
71208;DHT22;58938;49.868;8.646;2022-12-18T07:08:07;-3275.60;52.20
71208;DHT22;58938;49.868;8.646;2022-12-18T07:10:32;-3275.60;52.20
71208;DHT22;58938;49.868;8.646;2022-12-18T07:12:58;-3275.60;52.20
71208;DHT22;58938;49.868;8.646;2022-12-18T07:15:24;-3275.60;52.20
71208;DHT22;58938;49.868;8.646;2022-12-18T07:17:49;-3275.60;52.20
71208;DHT22;58938;49.868;8.646;2022-12-18T07:20:15;-3275.60;52.20
71208;DHT22;58938;49.868;8.646;2022-12-18T07:22:40;-3275.60;52.20
71208;DHT22;58938;49.868;8.646;2022-12-18T07:25:06;-3275.60;52.20
71208;DHT22;58938;49.868;8.646;2022-12-18T07:27:32;-3275.60;52.20
71208;DHT22;58938;49.868;8.646;2022-12-18T07:29:58;-3275.60;52.20
71208;DHT22;58938;49.868;8.646;2022-12-18T07:32:23;-3275.60;52.20
71208;DHT22;58938;49.868;8.646;2022-12-18T07:34:49;-3275.60;52.20
71208;DHT22;58938;49.868;8.646;2022-12-18T07:37:14;-3275.60;52.20
71208;DHT22;58938;49.868;8.646;2022-12-18T07:39:40;-3275.60;52.20
71208;DHT22;58938;49.868;8.646;2022-12-18T07:42:05;-3275.60;52.20
71208;DHT22;58938;49.868;8.646;2022-12-18T07:44:49;-3275.60;52.20
71208;DHT22;58938;49.868;8.646;2022-12-18T07:47:15;-3275.60;52.20
71208;DHT22;58938;49.868;8.646;2022-12-18T07:49:40;-3275.60;52.20
71208;DHT22;58938;49.868;8.646;2022-12-18T07:52:06;-3275.60;52.20
71208;DHT22;58938;49.868;8.646;2022-12-18T07:54:31;-3275.60;52.20
71208;DHT22;58938;49.868;8.646;2022-12-18T07:56:57;-3275.60;52.20
71208;DHT22;58938;49.868;8.646;2022-12-18T07:59:23;-3275.60;52.20
71208;DHT22;58938;49.868;8.646;2022-12-18T08:01:48;-3275.60;52.20
71208;DHT22;58938;49.868;8.646;2022-12-18T08:04:14;-3275.60;52.20
71208;DHT22;58938;49.868;8.646;2022-12-18T08:06:39;-3275.60;52.20
71208;DHT22;58938;49.868;8.646;2022-12-18T08:09:05;-3275.60;52.20
71208;DHT22;58938;49.868;8.646;2022-12-18T08:11:30;-3275.60;52.20
71208;DHT22;58938;49.868;8.646;2022-12-18T08:13:57;-3275.60;52.20
71208;DHT22;58938;49.868;8.646;2022-12-18T08:16:23;-3275.60;52.20
71208;DHT22;58938;49.868;8.646;2022-12-18T08:18:49;-3275.60;52.20
71208;DHT22;58938;49.868;8.646;2022-12-18T08:23:42;-3275.60;52.20
71208;DHT22;58938;49.868;8.646;2022-12-18T08:26:09;-3275.60;52.20
71208;DHT22;58938;49.868;8.646;2022-12-18T08:28:35;-3275.60;52.20
71208;DHT22;58938;49.868;8.646;2022-12-18T08:31:01;-3275.60;52.20
71208;DHT22;58938;49.868;8.646;2022-12-18T08:33:27;-3275.60;52.20
71208;DHT22;58938;49.868;8.646;2022-12-18T08:35:52;-3275.60;52.20
71208;DHT22;58938;49.868;8.646;2022-12-18T08:38:18;-3275.60;52.20
71208;DHT22;58938;49.868;8.646;2022-12-18T08:40:44;-3275.60;52.20
71208;DHT22;58938;49.868;8.646;2022-12-18T08:43:10;-3275.60;52.20
71208;DHT22;58938;49.868;8.646;2022-12-18T08:45:55;-3275.60;52.20
71208;DHT22;58938;49.868;8.646;2022-12-18T08:48:21;-3275.60;52.20
71208;DHT22;58938;49.868;8.646;2022-12-18T08:50:57;-3275.60;52.20
71208;DHT22;58938;49.868;8.646;2022-12-18T08:53:25;-3275.60;52.20
71208;DHT22;58938;49.868;8.646;2022-12-18T08:55:51;-3275.60;52.20
71208;DHT22;58938;49.868;8.646;2022-12-18T08:58:17;-3275.60;52.20
71208;DHT22;58938;49.868;8.646;2022-12-18T09:00:43;-3275.60;52.20
71208;DHT22;58938;49.868;8.646;2022-12-18T09:03:16;-3275.60;52.20
71208;DHT22;58938;49.868;8.646;2022-12-18T09:05:43;-3275.60;52.20
71208;DHT22;58938;49.868;8.646;2022-12-18T09:08:08;-3275.60;52.20
71208;DHT22;58938;49.868;8.646;2022-12-18T09:10:40;-3275.60;52.20
71208;DHT22;58938;49.868;8.646;2022-12-18T09:13:06;-3275.60;52.20
71208;DHT22;58938;49.868;8.646;2022-12-18T09:15:31;-3275.60;52.20
71208;DHT22;58938;49.868;8.646;2022-12-18T09:17:57;-3275.60;52.20
71208;DHT22;58938;49.868;8.646;2022-12-18T09:20:23;-3275.60;52.20
71208;DHT22;58938;49.868;8.646;2022-12-18T09:22:48;-3275.60;52.20
71208;DHT22;58938;49.868;8.646;2022-12-18T09:25:14;-3275.60;52.20
71208;DHT22;58938;49.868;8.646;2022-12-18T09:27:39;-3275.60;52.20
71208;DHT22;58938;49.868;8.646;2022-12-18T09:30:05;-3275.60;52.20
71208;DHT22;58938;49.868;8.646;2022-12-18T09:32:31;-3275.60;52.20
71208;DHT22;58938;49.868;8.646;2022-12-18T09:34:57;-3275.60;52.20
71208;DHT22;58938;49.868;8.646;2022-12-18T09:37:22;-3275.60;52.20
71208;DHT22;58938;49.868;8.646;2022-12-18T09:39:48;-3275.60;52.20
71208;DHT22;58938;49.868;8.646;2022-12-18T09:42:22;-3275.60;52.20
71208;DHT22;58938;49.868;8.646;2022-12-18T09:44:53;-3275.60;52.20
71208;DHT22;58938;49.868;8.646;2022-12-18T09:47:26;-3275.60;52.20
71208;DHT22;58938;49.868;8.646;2022-12-18T09:49:59;-3275.60;52.20
71208;DHT22;58938;49.868;8.646;2022-12-18T09:52:34;-3275.60;52.20
71208;DHT22;58938;49.868;8.646;2022-12-18T09:57:53;-3275.60;52.20
71208;DHT22;58938;49.868;8.646;2022-12-18T10:00:23;-3275.60;52.20
71208;DHT22;58938;49.868;8.646;2022-12-18T10:02:53;-3275.60;52.20
71208;DHT22;58938;49.868;8.646;2022-12-18T10:05:36;-3275.60;52.30
71208;DHT22;58938;49.868;8.646;2022-12-18T10:08:16;-3275.60;52.30
71208;DHT22;58938;49.868;8.646;2022-12-18T10:10:49;-3275.60;52.40
71208;DHT22;58938;49.868;8.646;2022-12-18T10:16:00;-3275.60;52.50
71208;DHT22;58938;49.868;8.646;2022-12-18T10:18:57;-3275.70;52.50
71208;DHT22;58938;49.868;8.646;2022-12-18T10:21:39;-3275.80;52.50
71208;DHT22;58938;49.868;8.646;2022-12-18T10:27:22;-3275.90;52.70
71208;DHT22;58938;49.868;8.646;2022-12-18T10:29:48;-3276.00;52.60
71208;DHT22;58938;49.868;8.646;2022-12-18T10:32:28;-3276.00;52.70
71208;DHT22;58938;49.868;8.646;2022-12-18T10:34:56;-3276.00;52.70
71208;DHT22;58938;49.868;8.646;2022-12-18T10:37:25;-3276.10;52.70
71208;DHT22;58938;49.868;8.646;2022-12-18T10:40:15;-3276.20;52.80
71208;DHT22;58938;49.868;8.646;2022-12-18T10:42:40;-3276.20;52.90
71208;DHT22;58938;49.868;8.646;2022-12-18T10:45:15;-3276.30;52.90
71208;DHT22;58938;49.868;8.646;2022-12-18T10:47:49;-3276.40;53.00
71208;DHT22;58938;49.868;8.646;2022-12-18T10:52:58;-3276.50;52.70
71208;DHT22;58938;49.868;8.646;2022-12-18T10:55:30;-3276.60;52.60
71208;DHT22;58938;49.868;8.646;2022-12-18T11:01:15;-3276.60;52.70
71208;DHT22;58938;49.868;8.646;2022-12-18T11:04:04;-3276.70;52.70
71208;DHT22;58938;49.868;8.646;2022-12-18T11:06:32;-3276.70;52.70
71208;DHT22;58938;49.868;8.646;2022-12-18T11:09:02;0.00;52.80
71208;DHT22;58938;49.868;8.646;2022-12-18T11:11:28;0.00;52.80
71208;DHT22;58938;49.868;8.646;2022-12-18T11:14:05;0.00;52.80
71208;DHT22;58938;49.868;8.646;2022-12-18T11:16:42;0.10;52.80
71208;DHT22;58938;49.868;8.646;2022-12-18T11:19:28;0.20;52.80
71208;DHT22;58938;49.868;8.646;2022-12-18T11:21:55;0.30;52.50
71208;DHT22;58938;49.868;8.646;2022-12-18T11:24:33;0.30;52.60
71208;DHT22;58938;49.868;8.646;2022-12-18T11:27:04;0.40;52.60
71208;DHT22;58938;49.868;8.646;2022-12-18T11:29:38;0.40;52.60
71208;DHT22;58938;49.868;8.646;2022-12-18T11:32:36;0.50;52.60
71208;DHT22;58938;49.868;8.646;2022-12-18T11:35:15;0.60;52.60
71208;DHT22;58938;49.868;8.646;2022-12-18T11:37:44;0.60;52.10
71208;DHT22;58938;49.868;8.646;2022-12-18T11:40:17;0.50;52.00
71208;DHT22;58938;49.868;8.646;2022-12-18T11:42:50;0.50;52.00
71208;DHT22;58938;49.868;8.646;2022-12-18T11:45:33;0.60;52.10
71208;DHT22;58938;49.868;8.646;2022-12-18T11:50:55;0.70;52.20
71208;DHT22;58938;49.868;8.646;2022-12-18T11:53:22;0.80;52.20
71208;DHT22;58938;49.868;8.646;2022-12-18T12:09:32;0.80;51.50
71208;DHT22;58938;49.868;8.646;2022-12-18T12:12:28;0.80;51.60
71208;DHT22;58938;49.868;8.646;2022-12-18T12:18:26;0.80;51.40
71208;DHT22;58938;49.868;8.646;2022-12-18T12:23:44;0.90;51.50
71208;DHT22;58938;49.868;8.646;2022-12-18T12:26:11;0.90;51.50
71208;DHT22;58938;49.868;8.646;2022-12-18T12:34:09;0.90;51.60
71208;DHT22;58938;49.868;8.646;2022-12-18T12:39:22;1.00;51.50
71208;DHT22;58938;49.868;8.646;2022-12-18T12:41:48;1.00;51.50
71208;DHT22;58938;49.868;8.646;2022-12-18T12:44:37;1.10;51.50
71208;DHT22;58938;49.868;8.646;2022-12-18T12:47:32;1.00;51.20
71208;DHT22;58938;49.868;8.646;2022-12-18T12:49:58;1.00;51.30
71208;DHT22;58938;49.868;8.646;2022-12-18T12:52:35;1.00;51.40
71208;DHT22;58938;49.868;8.646;2022-12-18T12:55:05;1.00;51.40
71208;DHT22;58938;49.868;8.646;2022-12-18T12:57:41;1.00;51.40
71208;DHT22;58938;49.868;8.646;2022-12-18T13:00:15;1.00;51.40
71208;DHT22;58938;49.868;8.646;2022-12-18T13:02:47;1.00;51.30
71208;DHT22;58938;49.868;8.646;2022-12-18T13:05:31;1.00;51.30
71208;DHT22;58938;49.868;8.646;2022-12-18T13:08:11;1.00;51.30
71208;DHT22;58938;49.868;8.646;2022-12-18T13:10:41;1.00;51.40
71208;DHT22;58938;49.868;8.646;2022-12-18T13:13:11;1.00;51.40
71208;DHT22;58938;49.868;8.646;2022-12-18T13:15:39;1.00;51.40
71208;DHT22;58938;49.868;8.646;2022-12-18T13:25:59;1.20;51.60
71208;DHT22;58938;49.868;8.646;2022-12-18T13:31:10;1.20;51.60
71208;DHT22;58938;49.868;8.646;2022-12-18T13:33:39;1.20;51.60
71208;DHT22;58938;49.868;8.646;2022-12-18T13:36:27;1.30;51.70
71208;DHT22;58938;49.868;8.646;2022-12-18T13:39:20;1.30;51.70
71208;DHT22;58938;49.868;8.646;2022-12-18T13:41:49;1.30;51.70
71208;DHT22;58938;49.868;8.646;2022-12-18T13:46:51;1.40;51.80
71208;DHT22;58938;49.868;8.646;2022-12-18T13:52:01;1.40;51.80
71208;DHT22;58938;49.868;8.646;2022-12-18T13:54:37;1.40;51.80
71208;DHT22;58938;49.868;8.646;2022-12-18T13:57:05;1.40;51.90
71208;DHT22;58938;49.868;8.646;2022-12-18T13:59:51;1.40;51.90
71208;DHT22;58938;49.868;8.646;2022-12-18T14:02:22;1.40;51.80
71208;DHT22;58938;49.868;8.646;2022-12-18T14:04:49;1.40;51.90
71208;DHT22;58938;49.868;8.646;2022-12-18T14:07:23;1.40;51.90
71208;DHT22;58938;49.868;8.646;2022-12-18T14:09:53;1.40;52.00
71208;DHT22;58938;49.868;8.646;2022-12-18T14:12:25;1.50;52.00
71208;DHT22;58938;49.868;8.646;2022-12-18T14:17:52;1.50;52.00
71208;DHT22;58938;49.868;8.646;2022-12-18T14:20:18;1.50;51.90
71208;DHT22;58938;49.868;8.646;2022-12-18T14:22:46;1.50;52.00
71208;DHT22;58938;49.868;8.646;2022-12-18T14:27:45;1.50;52.00
71208;DHT22;58938;49.868;8.646;2022-12-18T14:35:43;1.50;52.10
71208;DHT22;58938;49.868;8.646;2022-12-18T14:38:26;1.50;52.00
71208;DHT22;58938;49.868;8.646;2022-12-18T14:41:14;1.50;52.10
71208;DHT22;58938;49.868;8.646;2022-12-18T14:43:45;1.50;52.20
71208;DHT22;58938;49.868;8.646;2022-12-18T14:46:29;1.60;52.10
71208;DHT22;58938;49.868;8.646;2022-12-18T14:48:55;1.60;52.10
71208;DHT22;58938;49.868;8.646;2022-12-18T14:51:24;1.60;52.10
71208;DHT22;58938;49.868;8.646;2022-12-18T14:54:02;1.50;52.20
71208;DHT22;58938;49.868;8.646;2022-12-18T14:56:36;1.50;52.10
71208;DHT22;58938;49.868;8.646;2022-12-18T14:59:15;1.50;52.20
71208;DHT22;58938;49.868;8.646;2022-12-18T15:04:29;1.50;52.20
71208;DHT22;58938;49.868;8.646;2022-12-18T15:09:41;1.50;52.20
71208;DHT22;58938;49.868;8.646;2022-12-18T15:12:43;1.60;52.20
71208;DHT22;58938;49.868;8.646;2022-12-18T15:18:00;1.60;52.30
71208;DHT22;58938;49.868;8.646;2022-12-18T15:20:26;1.50;52.20
71208;DHT22;58938;49.868;8.646;2022-12-18T15:22:51;1.60;52.20
71208;DHT22;58938;49.868;8.646;2022-12-18T15:25:34;1.60;52.30
71208;DHT22;58938;49.868;8.646;2022-12-18T15:28:02;1.50;52.30
71208;DHT22;58938;49.868;8.646;2022-12-18T15:30:28;1.50;52.30
71208;DHT22;58938;49.868;8.646;2022-12-18T15:33:23;1.60;52.40
71208;DHT22;58938;49.868;8.646;2022-12-18T15:35:59;1.50;52.40
71208;DHT22;58938;49.868;8.646;2022-12-18T15:38:26;1.50;52.30
71208;DHT22;58938;49.868;8.646;2022-12-18T15:40:53;1.60;52.30
71208;DHT22;58938;49.868;8.646;2022-12-18T15:43:21;1.60;52.30
71208;DHT22;58938;49.868;8.646;2022-12-18T15:46:11;1.50;52.40
71208;DHT22;58938;49.868;8.646;2022-12-18T15:48:44;1.60;52.40
71208;DHT22;58938;49.868;8.646;2022-12-18T15:51:14;1.60;52.40
71208;DHT22;58938;49.868;8.646;2022-12-18T15:53:41;1.60;52.40
71208;DHT22;58938;49.868;8.646;2022-12-18T15:56:11;1.50;52.40
71208;DHT22;58938;49.868;8.646;2022-12-18T15:58:56;1.60;52.40
71208;DHT22;58938;49.868;8.646;2022-12-18T16:01:23;1.50;52.40
71208;DHT22;58938;49.868;8.646;2022-12-18T16:03:50;1.60;52.40
71208;DHT22;58938;49.868;8.646;2022-12-18T16:06:16;1.60;52.40
71208;DHT22;58938;49.868;8.646;2022-12-18T16:08:41;1.60;52.40
71208;DHT22;58938;49.868;8.646;2022-12-18T16:11:22;1.60;52.40
71208;DHT22;58938;49.868;8.646;2022-12-18T16:16:49;1.60;52.50
71208;DHT22;58938;49.868;8.646;2022-12-18T16:19:15;1.60;52.40
71208;DHT22;58938;49.868;8.646;2022-12-18T16:21:42;1.60;52.50
71208;DHT22;58938;49.868;8.646;2022-12-18T16:24:15;1.60;52.50
71208;DHT22;58938;49.868;8.646;2022-12-18T16:26:42;1.60;52.50
71208;DHT22;58938;49.868;8.646;2022-12-18T16:29:08;1.60;52.60
71208;DHT22;58938;49.868;8.646;2022-12-18T16:31:34;1.60;52.50
71208;DHT22;58938;49.868;8.646;2022-12-18T16:34:28;1.70;52.50
71208;DHT22;58938;49.868;8.646;2022-12-18T16:37:03;1.60;52.50
71208;DHT22;58938;49.868;8.646;2022-12-18T16:39:29;1.70;52.50
71208;DHT22;58938;49.868;8.646;2022-12-18T16:41:56;1.60;52.50
71208;DHT22;58938;49.868;8.646;2022-12-18T16:44:21;1.60;52.50
71208;DHT22;58938;49.868;8.646;2022-12-18T16:46:47;1.60;52.50
71208;DHT22;58938;49.868;8.646;2022-12-18T16:49:14;1.60;52.60
71208;DHT22;58938;49.868;8.646;2022-12-18T16:51:40;1.60;52.60
71208;DHT22;58938;49.868;8.646;2022-12-18T16:54:07;1.60;52.60
71208;DHT22;58938;49.868;8.646;2022-12-18T16:56:32;1.70;52.60
71208;DHT22;58938;49.868;8.646;2022-12-18T16:58:59;1.60;52.60
71208;DHT22;58938;49.868;8.646;2022-12-18T17:01:26;1.70;52.60
71208;DHT22;58938;49.868;8.646;2022-12-18T17:03:56;1.70;52.60
71208;DHT22;58938;49.868;8.646;2022-12-18T17:06:23;1.60;52.60
71208;DHT22;58938;49.868;8.646;2022-12-18T17:08:57;1.70;52.60
71208;DHT22;58938;49.868;8.646;2022-12-18T17:11:25;1.60;52.60
71208;DHT22;58938;49.868;8.646;2022-12-18T17:13:51;1.60;52.60